Strona główna
METAR-TAF:

METAR-TAF

Lotnisko :

Port lotniczy Kudat

Kudat, Malezja

Szerokość geograficzna: 06-55N, Długość geograficzna: 116-50E, wysokość: 3 m

Aktualna obserwacja pogody

Raport powstał 54 minut temu, godzina 09:00 UTC
Wiatr 6 kt od wschodnio-północny wschód, zmienny między północny zachód i wschodnio-południowy wschód
Temperatura 28°C
Wilgotność 84%
Ciśnienie 1009 hPa
Widzialność 10 km lub więcej
Rozproszone chmury na wysokości 1400 ft
Rozproszone chmury na wysokości 14000 ft
Przerywane chmury na wysokości 28000 ft

METAR: WBKT 140900Z 06006KT 320V120 9999 SCT014 SCT140 BKN280 28/25 Q1009

czas: 17:54 (09:54 UTC)


TAF: brakujący

Obserwacja i prognoza pogody dla ponad 4000 lotnisk (raport METAR i TAF).

Dostępne stacje oznaczono żółtymi i czerwonymi punktami na mapie.

Najedź kursorem aby zobaczyć nazwę stacji.

Kliknij aby zobaczyć obserwacje i prognozy pogody.

Aby zmienić mapę: kliknij na zielony przycisk z czarnym krzyżykiem, aby powiększyć; na zielony przycisk z myślnikiem, aby pomniejszyć; na zielone strzałki, aby przejść do map sąsiednich.


METAR-TAF: